createdAt,value
2022-12-03T00:02:21.812Z,23.15
2022-12-03T00:04:48.529Z,23.27
2022-12-03T00:07:15.582Z,26.05
2022-12-03T00:09:42.901Z,25.48
2022-12-03T00:12:09.462Z,24.80
2022-12-03T00:14:40.041Z,25.73
2022-12-03T00:17:11.377Z,23.83
2022-12-03T00:19:37.864Z,26.40
2022-12-03T00:22:04.391Z,22.38
2022-12-03T00:24:32.160Z,25.15
2022-12-03T00:26:58.650Z,26.27
2022-12-03T00:29:25.720Z,25.40
2022-12-03T00:31:52.236Z,24.02
2022-12-03T00:34:19.338Z,25.77
2022-12-03T00:36:45.935Z,25.15
2022-12-03T00:39:12.511Z,48.33
2022-12-03T00:41:39.041Z,27.80
2022-12-03T00:44:06.365Z,27.55
2022-12-03T00:46:32.917Z,26.83
2022-12-03T00:48:59.485Z,28.83
2022-12-03T00:51:26.461Z,26.88
2022-12-03T00:53:53.494Z,27.83
2022-12-03T00:56:20.534Z,26.20
2022-12-03T00:58:47.097Z,25.88
2022-12-03T01:01:14.249Z,25.70
2022-12-03T01:03:40.933Z,24.10
2022-12-03T01:06:07.552Z,25.85
2022-12-03T01:08:34.066Z,23.75
2022-12-03T01:11:00.639Z,27.75
2022-12-03T01:13:27.411Z,28.75
2022-12-03T01:15:55.037Z,27.05
2022-12-03T01:18:21.654Z,23.27
2022-12-03T01:20:48.644Z,24.02
2022-12-03T01:23:15.720Z,26.42
2022-12-03T01:25:42.760Z,21.70
2022-12-03T01:28:09.897Z,22.80
2022-12-03T01:30:56.491Z,26.30
2022-12-03T01:33:23.733Z,22.33
2022-12-03T01:35:50.255Z,22.83
2022-12-03T01:38:16.770Z,22.27
2022-12-03T01:40:43.845Z,21.92
2022-12-03T01:43:10.381Z,27.90
2022-12-03T01:45:37.451Z,20.77
2022-12-03T01:48:04.278Z,25.30
2022-12-03T01:50:33.184Z,23.05
2022-12-03T01:53:03.173Z,25.35
2022-12-03T01:55:30.492Z,25.48
2022-12-03T01:58:01.892Z,26.60
2022-12-03T02:00:29.826Z,28.52
2022-12-03T02:03:00.649Z,24.15
2022-12-03T02:05:30.259Z,21.35
2022-12-03T02:07:58.037Z,25.40
2022-12-03T02:10:34.744Z,21.73
2022-12-03T02:13:05.131Z,22.77
2022-12-03T02:15:32.290Z,24.20
2022-12-03T02:17:59.281Z,23.67
2022-12-03T02:20:26.376Z,21.10
2022-12-03T02:23:24.556Z,24.90
2022-12-03T02:25:51.182Z,25.52
2022-12-03T02:28:17.742Z,25.00
2022-12-03T02:30:44.775Z,23.73
2022-12-03T02:33:11.349Z,26.00
2022-12-03T02:35:39.533Z,24.20
2022-12-03T02:38:17.292Z,28.83
2022-12-03T02:40:47.181Z,26.77
2022-12-03T02:43:16.491Z,24.63
2022-12-03T02:45:46.770Z,25.15
2022-12-03T02:48:20.030Z,26.80
2022-12-03T02:50:52.066Z,26.63
2022-12-03T02:53:23.522Z,24.95
2022-12-03T02:55:52.409Z,26.30
2022-12-03T02:58:19.474Z,29.48
2022-12-03T03:00:47.150Z,28.15
2022-12-03T03:03:14.813Z,23.83
2022-12-03T03:05:41.601Z,31.60
2022-12-03T03:08:10.118Z,25.00
2022-12-03T03:10:39.155Z,29.23
2022-12-03T03:13:13.877Z,27.33
2022-12-03T03:15:41.944Z,28.25
2022-12-03T03:18:10.234Z,26.92
2022-12-03T03:20:37.376Z,27.50
2022-12-03T03:23:17.916Z,27.40
2022-12-03T03:25:57.452Z,26.67
2022-12-03T03:28:25.014Z,31.38
2022-12-03T03:30:52.311Z,28.63
2022-12-03T03:33:19.140Z,30.23
2022-12-03T03:35:49.355Z,28.52
2022-12-03T03:38:19.319Z,26.27
2022-12-03T03:40:47.171Z,32.70
2022-12-03T03:43:14.245Z,27.25
2022-12-03T03:45:42.101Z,28.42
2022-12-03T03:48:08.681Z,26.63
2022-12-03T03:50:35.760Z,32.97
2022-12-03T03:53:03.288Z,28.67
2022-12-03T03:55:31.120Z,29.17
2022-12-03T03:57:58.037Z,27.73
2022-12-03T04:00:24.739Z,29.30
2022-12-03T04:02:52.981Z,29.30
2022-12-03T04:05:22.187Z,28.95
2022-12-03T04:07:48.824Z,31.13
2022-12-03T04:10:34.305Z,27.40
2022-12-03T04:15:29.296Z,33.00
2022-12-03T04:18:16.950Z,26.30
2022-12-03T04:20:43.514Z,30.17
2022-12-03T04:23:10.887Z,32.72
2022-12-03T04:25:56.200Z,28.13
2022-12-03T04:28:41.308Z,29.52
2022-12-03T04:31:26.535Z,30.17
2022-12-03T04:34:12.478Z,29.98
2022-12-03T04:36:39.405Z,30.08
2022-12-03T04:39:06.380Z,30.63
2022-12-03T04:41:32.919Z,31.65
2022-12-03T04:44:18.134Z,28.23
2022-12-03T04:46:45.142Z,39.05
2022-12-03T04:49:12.205Z,27.65
2022-12-03T04:51:38.898Z,30.52
2022-12-03T04:54:05.661Z,28.80
2022-12-03T04:56:32.203Z,26.73
2022-12-03T04:58:58.684Z,28.63
2022-12-03T05:01:25.782Z,32.47
2022-12-03T05:03:53.286Z,33.03
2022-12-03T05:06:20.282Z,30.48
2022-12-03T05:08:47.315Z,29.17
2022-12-03T05:11:13.894Z,27.42
2022-12-03T05:13:41.285Z,28.30
2022-12-03T05:16:09.608Z,36.20
2022-12-03T05:18:36.595Z,27.88
2022-12-03T05:21:03.348Z,27.15
2022-12-03T05:23:29.993Z,25.55
2022-12-03T05:25:57.052Z,23.65
2022-12-03T05:28:24.321Z,27.48
2022-12-03T05:30:51.673Z,27.75
2022-12-03T05:33:19.101Z,28.38
2022-12-03T05:35:46.119Z,27.50
2022-12-03T05:38:13.261Z,23.80
2022-12-03T05:40:40.290Z,28.40
2022-12-03T05:43:06.815Z,27.90
2022-12-03T05:45:39.435Z,29.88
2022-12-03T05:48:09.187Z,30.13
2022-12-03T05:50:38.304Z,27.27
2022-12-03T05:53:05.669Z,33.33
2022-12-03T05:55:32.463Z,26.02
2022-12-03T05:57:59.584Z,26.08
2022-12-03T06:00:31.540Z,28.63
2022-12-03T06:02:58.579Z,29.13
2022-12-03T06:05:26.408Z,27.23
2022-12-03T06:07:53.763Z,29.77
2022-12-03T06:10:23.353Z,26.70
2022-12-03T06:12:50.400Z,28.00
2022-12-03T06:15:18.147Z,32.47
2022-12-03T06:17:45.014Z,27.05
2022-12-03T06:20:18.429Z,28.40
2022-12-03T06:22:45.858Z,26.60
2022-12-03T06:25:13.452Z,26.05
2022-12-03T06:27:40.025Z,29.48
2022-12-03T06:30:08.835Z,26.98
2022-12-03T06:32:35.958Z,28.85
2022-12-03T06:35:02.525Z,28.38
2022-12-03T06:37:29.051Z,27.85
2022-12-03T06:39:55.580Z,28.20
2022-12-03T06:42:22.107Z,29.05
2022-12-03T06:44:49.095Z,26.90
2022-12-03T06:47:15.609Z,33.17
2022-12-03T06:49:42.593Z,31.10
2022-12-03T06:52:09.535Z,25.58
2022-12-03T06:54:36.061Z,28.83
2022-12-03T06:57:03.145Z,41.30
2022-12-03T06:59:29.816Z,26.05
2022-12-03T07:01:56.448Z,28.70
2022-12-03T07:04:23.021Z,30.73
2022-12-03T07:06:50.066Z,28.75
2022-12-03T07:09:17.184Z,27.00
2022-12-03T07:11:44.243Z,27.77
2022-12-03T07:14:11.455Z,32.85
2022-12-03T07:16:39.177Z,27.48
2022-12-03T07:19:06.986Z,29.50
2022-12-03T07:21:33.912Z,29.48
2022-12-03T07:24:01.205Z,28.15
2022-12-03T07:26:27.781Z,32.05
2022-12-03T07:28:54.486Z,30.60
2022-12-03T07:31:21.630Z,32.20
2022-12-03T07:33:48.267Z,30.75
2022-12-03T07:36:14.873Z,29.58
2022-12-03T07:38:41.446Z,33.88
2022-12-03T07:41:07.932Z,25.25
2022-12-03T07:43:34.552Z,28.95
2022-12-03T07:46:01.128Z,29.02
2022-12-03T07:48:27.970Z,31.83
2022-12-03T07:50:54.624Z,25.75
2022-12-03T07:53:21.784Z,29.92
2022-12-03T07:55:48.330Z,29.40
2022-12-03T07:58:15.385Z,29.67
2022-12-03T08:00:42.041Z,34.83
2022-12-03T08:03:08.586Z,31.88
2022-12-03T08:05:35.652Z,35.58
2022-12-03T08:08:02.298Z,33.55
2022-12-03T08:10:28.884Z,36.75
2022-12-03T08:12:58.962Z,35.78
2022-12-03T08:15:30.196Z,38.17
2022-12-03T08:18:01.560Z,35.20
2022-12-03T08:20:33.810Z,39.17
2022-12-03T08:23:07.263Z,37.80
2022-12-03T08:25:33.878Z,31.90
2022-12-03T08:28:13.316Z,33.35
2022-12-03T08:30:41.766Z,34.10
2022-12-03T08:33:35.504Z,32.45
2022-12-03T08:36:11.796Z,30.17
2022-12-03T08:38:39.230Z,29.63
2022-12-03T08:41:14.113Z,36.63
2022-12-03T08:43:42.889Z,30.33
2022-12-03T08:46:19.383Z,31.35
2022-12-03T08:48:49.060Z,33.55
2022-12-03T08:51:25.532Z,30.30
2022-12-03T08:54:12.053Z,28.27
2022-12-03T08:56:39.290Z,32.00
2022-12-03T08:59:24.421Z,33.95
2022-12-03T09:01:53.411Z,26.70
2022-12-03T09:04:46.228Z,34.58
2022-12-03T09:07:12.854Z,26.88
2022-12-03T09:09:39.914Z,30.02
2022-12-03T09:12:06.784Z,30.73
2022-12-03T09:14:33.272Z,30.83
2022-12-03T09:16:59.972Z,28.38
2022-12-03T09:19:27.797Z,26.02
2022-12-03T09:21:55.166Z,29.67
2022-12-03T09:24:21.731Z,25.73
2022-12-03T09:26:48.424Z,28.10
2022-12-03T09:29:15.675Z,35.08
2022-12-03T09:31:42.374Z,32.75
2022-12-03T09:34:09.293Z,29.70
2022-12-03T09:36:35.922Z,28.92
2022-12-03T09:39:02.949Z,31.38
2022-12-03T09:41:29.432Z,27.63
2022-12-03T09:44:05.325Z,34.10
2022-12-03T09:46:33.776Z,29.58
2022-12-03T09:49:01.312Z,24.48
2022-12-03T09:51:33.212Z,30.92
2022-12-03T09:54:01.921Z,30.48
2022-12-03T09:56:28.761Z,32.10
2022-12-03T09:58:56.273Z,30.35
2022-12-03T10:01:27.887Z,31.40
2022-12-03T10:03:56.554Z,30.30
2022-12-03T10:06:24.216Z,34.53
2022-12-03T10:08:54.514Z,34.50
2022-12-03T10:11:24.420Z,32.22
2022-12-03T10:13:51.616Z,29.95
2022-12-03T10:16:20.819Z,28.63
2022-12-03T10:18:52.073Z,31.77
2022-12-03T10:21:27.383Z,33.88
2022-12-03T10:24:32.973Z,33.25
2022-12-03T10:27:01.615Z,29.90
2022-12-03T10:29:34.690Z,33.17
2022-12-03T10:32:07.556Z,34.67
2022-12-03T10:34:39.892Z,31.48
2022-12-03T10:37:22.693Z,36.25
2022-12-03T10:39:56.374Z,33.70
2022-12-03T10:42:25.006Z,34.85
2022-12-03T10:45:09.587Z,34.15
2022-12-03T10:47:36.357Z,28.48
2022-12-03T10:50:06.308Z,34.42
2022-12-03T10:52:33.021Z,35.20
2022-12-03T10:54:59.618Z,35.63
2022-12-03T10:57:26.703Z,34.08
2022-12-03T10:59:53.377Z,31.85
2022-12-03T11:02:23.423Z,36.67
2022-12-03T11:04:52.183Z,36.90
2022-12-03T11:07:20.766Z,38.38
2022-12-03T11:09:50.322Z,38.05
2022-12-03T11:12:26.113Z,35.78
2022-12-03T11:14:54.042Z,38.38
2022-12-03T11:17:47.232Z,40.90
2022-12-03T11:20:36.254Z,42.53
2022-12-03T11:23:02.854Z,36.55
2022-12-03T11:25:29.931Z,38.72
2022-12-03T11:28:14.788Z,39.70
2022-12-03T11:30:53.853Z,24.98
2022-12-03T11:33:24.824Z,40.38
2022-12-03T11:36:03.165Z,41.05
2022-12-03T11:38:40.847Z,38.45
2022-12-03T11:41:34.779Z,39.58
2022-12-03T11:44:05.389Z,39.67
2022-12-03T11:46:37.810Z,37.53
2022-12-03T11:49:25.750Z,37.78
2022-12-03T11:51:52.658Z,42.55
2022-12-03T11:54:22.238Z,37.63
2022-12-03T11:56:50.749Z,38.35
2022-12-03T11:59:18.475Z,39.28
2022-12-03T12:01:45.408Z,46.80
2022-12-03T12:04:33.472Z,42.92
2022-12-03T12:07:00.874Z,43.70
2022-12-03T12:09:50.766Z,46.28
2022-12-03T12:12:31.963Z,40.20
2022-12-03T12:14:59.681Z,41.65
2022-12-03T12:17:37.369Z,45.67
2022-12-03T12:20:24.565Z,50.58
2022-12-03T12:22:54.756Z,46.03
2022-12-03T12:25:30.837Z,44.88
2022-12-03T12:27:57.555Z,44.90
2022-12-03T12:30:24.150Z,45.80
2022-12-03T12:32:53.061Z,46.72
2022-12-03T12:35:25.277Z,45.28
2022-12-03T12:37:58.923Z,43.03
2022-12-03T12:40:30.417Z,46.97
2022-12-03T12:43:08.497Z,43.40
2022-12-03T12:45:42.864Z,41.45
2022-12-03T12:48:26.426Z,45.78
2022-12-03T12:51:11.140Z,48.42
2022-12-03T12:53:40.070Z,43.03
2022-12-03T12:56:32.825Z,49.38
2022-12-03T12:59:11.597Z,45.22
2022-12-03T13:01:39.122Z,50.65
2022-12-03T13:04:11.860Z,46.78
2022-12-03T13:06:38.869Z,48.30
2022-12-03T13:09:14.857Z,49.35
2022-12-03T13:11:46.836Z,44.33
2022-12-03T13:14:26.234Z,47.15
2022-12-03T13:16:56.044Z,45.50
2022-12-03T13:19:24.160Z,45.00
2022-12-03T13:21:53.673Z,46.50
2022-12-03T13:24:54.637Z,40.40
2022-12-03T13:27:30.163Z,45.65
2022-12-03T13:30:13.726Z,40.03
2022-12-03T13:32:42.094Z,41.35
2022-12-03T13:35:35.992Z,45.47
2022-12-03T13:38:13.460Z,42.25
2022-12-03T13:40:41.535Z,38.72
2022-12-03T13:43:14.421Z,37.38
2022-12-03T13:45:44.281Z,40.70
2022-12-03T13:48:29.350Z,39.17
2022-12-03T13:50:56.594Z,39.58
2022-12-03T13:53:40.395Z,44.97
2022-12-03T13:56:30.169Z,40.25
2022-12-03T13:59:00.141Z,45.72
2022-12-03T14:01:28.165Z,41.00
2022-12-03T14:03:55.223Z,40.10
2022-12-03T14:06:21.846Z,38.03
2022-12-03T14:08:48.755Z,37.75
2022-12-03T14:11:33.962Z,43.35
2022-12-03T14:14:01.070Z,36.58
2022-12-03T14:16:28.234Z,36.42
2022-12-03T14:18:54.752Z,32.35
2022-12-03T14:21:21.873Z,36.95
2022-12-03T14:23:48.466Z,37.03
2022-12-03T14:26:15.310Z,33.70
2022-12-03T14:28:41.881Z,37.40
2022-12-03T14:31:08.466Z,36.53
2022-12-03T14:33:35.107Z,35.80
2022-12-03T14:36:02.695Z,34.75
2022-12-03T14:38:29.753Z,41.60
2022-12-03T14:40:56.337Z,39.42
2022-12-03T14:43:22.921Z,30.92
2022-12-03T14:45:49.543Z,35.45
2022-12-03T14:48:16.137Z,33.25
2022-12-03T14:50:42.662Z,36.58
2022-12-03T14:53:09.221Z,33.00
2022-12-03T14:55:35.785Z,33.60
2022-12-03T14:58:02.404Z,30.25
2022-12-03T15:00:28.996Z,32.88
2022-12-03T15:02:55.567Z,36.65
2022-12-03T15:05:28.299Z,38.30
2022-12-03T15:07:56.092Z,35.75
2022-12-03T15:10:22.759Z,36.65
2022-12-03T15:12:49.511Z,33.13
2022-12-03T15:15:16.580Z,37.85
2022-12-03T15:17:45.682Z,37.30
2022-12-03T15:20:12.869Z,36.13
2022-12-03T15:22:39.397Z,32.25
2022-12-03T15:25:07.787Z,36.60
2022-12-03T15:27:34.370Z,36.03
2022-12-03T15:30:00.919Z,34.47
2022-12-03T15:32:27.685Z,38.95
2022-12-03T15:34:54.226Z,48.10
2022-12-03T15:37:20.791Z,37.83
2022-12-03T15:39:48.894Z,43.08
2022-12-03T15:42:16.140Z,47.72
2022-12-03T15:44:43.220Z,45.45
2022-12-03T15:47:10.205Z,55.85
2022-12-03T15:49:36.771Z,46.78
2022-12-03T15:52:04.568Z,47.80
2022-12-03T15:54:31.626Z,50.80
2022-12-03T15:56:58.119Z,44.38
2022-12-03T15:59:25.257Z,50.08
2022-12-03T16:01:51.866Z,49.30
2022-12-03T16:04:18.472Z,47.40
2022-12-03T16:06:45.021Z,48.25
2022-12-03T16:09:11.812Z,50.03
2022-12-03T16:11:38.339Z,49.60
2022-12-03T16:14:04.895Z,40.50
2022-12-03T16:16:32.079Z,48.33
2022-12-03T16:18:58.717Z,49.80
2022-12-03T16:21:27.336Z,51.40
2022-12-03T16:23:54.675Z,44.58
2022-12-03T16:26:21.713Z,55.47
2022-12-03T16:28:48.273Z,47.20
2022-12-03T16:31:14.880Z,44.55
2022-12-03T16:33:41.425Z,48.38
2022-12-03T16:36:08.413Z,53.85
2022-12-03T16:38:34.999Z,43.25
2022-12-03T16:41:02.201Z,45.50
2022-12-03T16:43:29.248Z,43.75
2022-12-03T16:46:02.921Z,46.58
2022-12-03T16:48:30.198Z,38.50
2022-12-03T16:50:56.874Z,36.88
2022-12-03T16:53:23.483Z,39.13
2022-12-03T16:55:50.030Z,39.25
2022-12-03T16:58:18.774Z,32.60
2022-12-03T17:00:45.746Z,40.78
2022-12-03T17:03:12.399Z,38.00
2022-12-03T17:05:39.014Z,36.58
2022-12-03T17:08:05.626Z,36.92
2022-12-03T17:10:32.531Z,39.45
2022-12-03T17:13:14.498Z,43.38
2022-12-03T17:15:41.508Z,42.05
2022-12-03T17:18:24.034Z,39.10
2022-12-03T17:20:50.574Z,43.58
2022-12-03T17:23:17.750Z,41.85
2022-12-03T17:25:44.359Z,41.50
2022-12-03T17:28:10.890Z,40.30
2022-12-03T17:30:37.955Z,39.92
2022-12-03T17:33:05.140Z,36.70
2022-12-03T17:35:32.267Z,34.78
2022-12-03T17:37:58.870Z,42.97
2022-12-03T17:40:25.418Z,36.25
2022-12-03T17:42:51.948Z,41.22
2022-12-03T17:45:18.509Z,36.45
2022-12-03T17:47:45.085Z,40.92
2022-12-03T17:50:12.108Z,39.28
2022-12-03T17:52:38.820Z,40.72
2022-12-03T17:55:18.054Z,42.50
2022-12-03T17:57:50.406Z,45.65
2022-12-03T18:00:17.306Z,50.92
2022-12-03T18:02:43.845Z,44.33
2022-12-03T18:05:10.468Z,43.63
2022-12-03T18:07:37.038Z,43.15
2022-12-03T18:10:04.491Z,39.58
2022-12-03T18:12:31.154Z,44.47
2022-12-03T18:14:58.140Z,47.58
2022-12-03T18:17:25.356Z,48.83
2022-12-03T18:19:52.239Z,45.08
2022-12-03T18:22:19.712Z,40.30
2022-12-03T18:24:50.246Z,43.92
2022-12-03T18:27:18.394Z,53.30
2022-12-03T18:29:44.974Z,47.58
2022-12-03T18:32:27.890Z,44.90
2022-12-03T18:34:56.007Z,46.45
2022-12-03T18:37:25.848Z,46.50
2022-12-03T18:39:52.651Z,51.78
2022-12-03T18:42:21.761Z,43.65
2022-12-03T18:44:50.747Z,48.45
2022-12-03T18:47:23.113Z,52.55
2022-12-03T18:49:50.547Z,47.70
2022-12-03T18:52:19.639Z,46.85
2022-12-03T18:54:47.200Z,43.45
2022-12-03T18:57:14.119Z,50.83
2022-12-03T18:59:40.735Z,47.13
2022-12-03T19:02:08.242Z,47.15
2022-12-03T19:04:34.873Z,42.25
2022-12-03T19:07:03.379Z,51.15
2022-12-03T19:09:30.026Z,40.10
2022-12-03T19:11:57.031Z,44.97
2022-12-03T19:14:23.657Z,44.58
2022-12-03T19:16:50.452Z,47.35
2022-12-03T19:19:17.306Z,48.95
2022-12-03T19:21:44.364Z,46.30
2022-12-03T19:24:26.267Z,52.15
2022-12-03T19:26:55.485Z,44.50
2022-12-03T19:29:23.129Z,45.60
2022-12-03T19:31:51.477Z,44.75
2022-12-03T19:34:18.787Z,45.35
2022-12-03T19:36:45.874Z,46.10
2022-12-03T19:39:12.501Z,48.90
2022-12-03T19:41:41.276Z,44.08
2022-12-03T19:44:11.009Z,43.45
2022-12-03T19:46:37.873Z,44.75
2022-12-03T19:49:04.921Z,45.42
2022-12-03T19:51:35.014Z,43.70
2022-12-03T19:54:06.829Z,40.10
2022-12-03T19:56:34.132Z,44.75
2022-12-03T19:59:01.047Z,43.30
2022-12-03T20:01:30.125Z,42.78
2022-12-03T20:03:58.556Z,36.28
2022-12-03T20:06:28.264Z,40.90
2022-12-03T20:09:00.642Z,36.13
2022-12-03T20:11:29.951Z,44.72
2022-12-03T20:14:02.563Z,37.70
2022-12-03T20:16:31.292Z,40.00
2022-12-03T20:19:04.240Z,43.88
2022-12-03T20:21:33.194Z,39.92
2022-12-03T20:23:59.834Z,40.72
2022-12-03T20:26:27.671Z,40.28
2022-12-03T20:28:56.239Z,38.20
2022-12-03T20:31:25.305Z,39.85
2022-12-03T20:33:55.664Z,41.97
2022-12-03T20:36:25.293Z,42.42
2022-12-03T20:38:56.239Z,37.03
2022-12-03T20:41:23.033Z,37.50
2022-12-03T20:43:50.320Z,40.00
2022-12-03T20:46:19.895Z,38.05
2022-12-03T20:48:47.000Z,36.72
2022-12-03T20:51:19.538Z,43.15
2022-12-03T20:53:46.436Z,39.80
2022-12-03T20:56:22.419Z,44.38
2022-12-03T20:58:50.149Z,38.35
2022-12-03T21:01:22.610Z,43.22
2022-12-03T21:03:50.195Z,39.30
2022-12-03T21:06:17.090Z,38.67
2022-12-03T21:08:44.312Z,34.53
2022-12-03T21:11:13.566Z,43.28
2022-12-03T21:13:41.639Z,39.20
2022-12-03T21:16:11.016Z,41.78
2022-12-03T21:18:38.894Z,36.40
2022-12-03T21:21:06.885Z,35.60
2022-12-03T21:23:34.969Z,38.38
2022-12-03T21:26:07.897Z,42.03
2022-12-03T21:28:34.898Z,40.55
2022-12-03T21:31:03.734Z,33.75
2022-12-03T21:33:31.090Z,38.75
2022-12-03T21:35:59.051Z,34.90
2022-12-03T21:38:26.913Z,38.65
2022-12-03T21:40:54.198Z,41.42
2022-12-03T21:43:21.293Z,39.53
2022-12-03T21:45:48.444Z,43.08
2022-12-03T21:48:15.831Z,38.88
2022-12-03T21:50:43.405Z,40.17
2022-12-03T21:53:10.629Z,41.97
2022-12-03T21:55:41.380Z,37.13
2022-12-03T21:58:08.773Z,40.35
2022-12-03T22:00:36.068Z,42.58
2022-12-03T22:03:02.723Z,39.38
2022-12-03T22:05:29.399Z,40.80
2022-12-03T22:07:58.845Z,37.20
2022-12-03T22:10:25.356Z,46.42
2022-12-03T22:12:51.900Z,46.00
2022-12-03T22:15:19.768Z,48.22
2022-12-03T22:17:46.844Z,46.70
2022-12-03T22:20:13.481Z,47.67
2022-12-03T22:22:40.389Z,43.33
2022-12-03T22:25:07.305Z,43.75
2022-12-03T22:27:34.952Z,47.08
2022-12-03T22:30:02.401Z,45.83
2022-12-03T22:32:28.979Z,46.47
2022-12-03T22:34:56.037Z,46.47
2022-12-03T22:37:22.662Z,50.53
2022-12-03T22:39:49.212Z,46.30
2022-12-03T22:42:16.395Z,47.92
2022-12-03T22:44:43.917Z,43.35
2022-12-03T22:47:10.936Z,45.92
2022-12-03T22:49:37.403Z,41.42
2022-12-03T22:52:04.054Z,49.10
2022-12-03T22:54:30.604Z,42.22
2022-12-03T22:56:57.646Z,50.35
2022-12-03T22:59:24.249Z,50.22
2022-12-03T23:01:51.358Z,45.35
2022-12-03T23:04:18.011Z,46.67
2022-12-03T23:06:44.640Z,43.63
2022-12-03T23:09:12.158Z,42.28
2022-12-03T23:11:39.195Z,50.33
2022-12-03T23:14:05.819Z,41.20
2022-12-03T23:16:33.809Z,50.08
2022-12-03T23:19:01.776Z,45.03
2022-12-03T23:21:31.544Z,46.08
2022-12-03T23:23:59.429Z,42.08
2022-12-03T23:26:26.845Z,42.28
2022-12-03T23:28:54.201Z,49.45
2022-12-03T23:31:30.062Z,44.25
2022-12-03T23:33:57.895Z,42.05
2022-12-03T23:36:26.564Z,47.90
2022-12-03T23:38:54.606Z,42.85
2022-12-03T23:41:23.196Z,44.97
2022-12-03T23:43:49.893Z,44.95
2022-12-03T23:46:19.598Z,48.17
2022-12-03T23:48:46.254Z,45.05
2022-12-03T23:51:16.599Z,44.22
2022-12-03T23:53:43.217Z,45.83
2022-12-03T23:56:13.695Z,45.40
2022-12-03T23:58:40.559Z,45.85
